DAL1152 KLAS-KLAX
Flight info
| Callsign | DAL1152 |
|---|---|
| Flight time | 0h 38m |
| Altitude | 28000 |
| Route | RADYR2 BLAQQ SHTNR ANJLL4 |
| Aircraft | A320/M-SDE3FGHIRWY/LB1 |
Departure
| Time | 2026-05-07 23:27 |
|---|---|
| Airport | Harry Reid International Airport (KLAS) |
Arrival
| Time | 2026-05-08 00:06 |
|---|---|
| Airport | Los Angeles International Airport (KLAX) |
| Time | Latitude | Longitude | Altitude | Speed | Heading |
|---|---|---|---|---|---|
| 2026-05-07 23:05 | 36.08086 | -115.14019 | 2093 ft | 0 kts | 136° |
| 2026-05-07 23:15 | 36.08102 | -115.14036 | 2093 ft | 0 kts | 135° |
| 2026-05-07 23:17 | 36.08111 | -115.14047 | 2093 ft | 4 kts | 135° |
| 2026-05-07 23:18 | 36.08130 | -115.14071 | 2094 ft | 4 kts | 135° |
| 2026-05-07 23:18 | 36.08147 | -115.14091 | 2094 ft | 1 kts | 135° |
| 2026-05-07 23:19 | 36.08142 | -115.14091 | 2094 ft | 3 kts | 168° |
| 2026-05-07 23:20 | 36.08120 | -115.14114 | 2094 ft | 4 kts | 221° |
| 2026-05-07 23:20 | 36.08074 | -115.14150 | 2095 ft | 15 kts | 203° |
| 2026-05-07 23:20 | 36.07985 | -115.14158 | 2095 ft | 11 kts | 178° |
| 2026-05-07 23:20 | 36.07913 | -115.14159 | 2095 ft | 9 kts | 179° |
| 2026-05-07 23:21 | 36.07888 | -115.14159 | 2095 ft | 0 kts | 179° |
| 2026-05-07 23:21 | 36.07887 | -115.14158 | 2095 ft | 0 kts | 179° |
| 2026-05-07 23:21 | 36.07845 | -115.14145 | 2094 ft | 11 kts | 145° |
| 2026-05-07 23:22 | 36.07828 | -115.14048 | 2093 ft | 12 kts | 89° |
| 2026-05-07 23:22 | 36.07828 | -115.13951 | 2093 ft | 11 kts | 90° |
| 2026-05-07 23:22 | 36.07829 | -115.13845 | 2093 ft | 14 kts | 89° |
| 2026-05-07 23:22 | 36.07830 | -115.13720 | 2092 ft | 15 kts | 90° |
| 2026-05-07 23:23 | 36.07828 | -115.13585 | 2092 ft | 16 kts | 91° |
| 2026-05-07 23:23 | 36.07828 | -115.13432 | 2090 ft | 21 kts | 90° |
| 2026-05-07 23:23 | 36.07828 | -115.13241 | 2087 ft | 24 kts | 90° |
| 2026-05-07 23:23 | 36.07829 | -115.13019 | 2076 ft | 28 kts | 90° |
| 2026-05-07 23:24 | 36.07829 | -115.12757 | 2068 ft | 33 kts | 90° |
| 2026-05-07 23:24 | 36.07829 | -115.12486 | 2058 ft | 31 kts | 90° |
| 2026-05-07 23:24 | 36.07818 | -115.12251 | 2053 ft | 20 kts | 124° |
| 2026-05-07 23:24 | 36.07746 | -115.12143 | 2049 ft | 3 kts | 138° |
| 2026-05-07 23:25 | 36.07745 | -115.12142 | 2049 ft | 0 kts | 139° |
| 2026-05-07 23:26 | 36.07724 | -115.12131 | 2051 ft | 14 kts | 163° |
| 2026-05-07 23:26 | 36.07648 | -115.12221 | 2050 ft | 19 kts | 276° |
| 2026-05-07 23:26 | 36.07640 | -115.12487 | 2058 ft | 59 kts | 268° |
| 2026-05-07 23:26 | 36.07636 | -115.13262 | 2086 ft | 118 kts | 270° |
| 2026-05-07 23:27 | 36.07635 | -115.16101 | 2222 ft | 199 kts | 269° |
| 2026-05-07 23:27 | 36.07606 | -115.17831 | 2850 ft | 203 kts | 270° |
| 2026-05-07 23:27 | 36.07578 | -115.19576 | 3634 ft | 202 kts | 269° |
| 2026-05-07 23:28 | 36.07494 | -115.21350 | 4053 ft | 216 kts | 263° |
| 2026-05-07 23:28 | 36.07289 | -115.23291 | 4245 ft | 240 kts | 262° |
| 2026-05-07 23:28 | 36.06761 | -115.25254 | 4757 ft | 250 kts | 234° |
| 2026-05-07 23:28 | 36.05376 | -115.26659 | 5208 ft | 267 kts | 204° |
| 2026-05-07 23:29 | 36.03632 | -115.27490 | 5810 ft | 276 kts | 200° |
| 2026-05-07 23:29 | 36.01811 | -115.28302 | 6582 ft | 280 kts | 200° |
| 2026-05-07 23:29 | 35.99967 | -115.29112 | 7359 ft | 283 kts | 201° |
| 2026-05-07 23:29 | 35.98040 | -115.29719 | 8029 ft | 289 kts | 192° |
| 2026-05-07 23:30 | 35.96048 | -115.30180 | 8820 ft | 292 kts | 193° |
| 2026-05-07 23:30 | 35.94041 | -115.30667 | 9615 ft | 296 kts | 194° |
| 2026-05-07 23:30 | 35.92007 | -115.31168 | 10292 ft | 304 kts | 194° |
| 2026-05-07 23:30 | 35.89851 | -115.31704 | 10525 ft | 327 kts | 193° |
| 2026-05-07 23:31 | 35.87563 | -115.32272 | 10921 ft | 343 kts | 193° |
| 2026-05-07 23:31 | 35.85157 | -115.32866 | 11245 ft | 359 kts | 192° |
| 2026-05-07 23:31 | 35.82673 | -115.33471 | 11830 ft | 366 kts | 192° |
| 2026-05-07 23:31 | 35.80161 | -115.34082 | 12502 ft | 371 kts | 191° |
| 2026-05-07 23:32 | 35.77615 | -115.34705 | 13200 ft | 375 kts | 191° |
| 2026-05-07 23:32 | 35.75039 | -115.35334 | 13868 ft | 379 kts | 191° |
| 2026-05-07 23:32 | 35.72435 | -115.35969 | 14471 ft | 383 kts | 191° |
| 2026-05-07 23:32 | 35.69803 | -115.36613 | 15082 ft | 387 kts | 191° |
| 2026-05-07 23:33 | 35.67185 | -115.37256 | 15648 ft | 391 kts | 191° |
| 2026-05-07 23:33 | 35.64501 | -115.37913 | 16232 ft | 395 kts | 191° |
| 2026-05-07 23:33 | 35.61780 | -115.38531 | 16811 ft | 400 kts | 187° |
| 2026-05-07 23:33 | 35.58991 | -115.38664 | 17382 ft | 403 kts | 176° |
| 2026-05-07 23:34 | 35.56176 | -115.38445 | 17952 ft | 408 kts | 175° |
| 2026-05-07 23:34 | 35.53326 | -115.38228 | 18491 ft | 412 kts | 175° |
| 2026-05-07 23:34 | 35.50457 | -115.38017 | 18995 ft | 416 kts | 176° |
| 2026-05-07 23:34 | 35.47552 | -115.37870 | 19494 ft | 420 kts | 180° |
| 2026-05-07 23:35 | 35.44633 | -115.38239 | 19997 ft | 424 kts | 191° |
| 2026-05-07 23:35 | 35.41781 | -115.39231 | 20508 ft | 428 kts | 201° |
| 2026-05-07 23:35 | 35.39085 | -115.40801 | 21001 ft | 431 kts | 208° |
| 2026-05-07 23:35 | 35.36415 | -115.42522 | 21481 ft | 435 kts | 208° |
| 2026-05-07 23:36 | 35.33721 | -115.44252 | 21952 ft | 439 kts | 208° |
| 2026-05-07 23:36 | 35.31002 | -115.45991 | 22420 ft | 443 kts | 208° |
| 2026-05-07 23:36 | 35.28259 | -115.47741 | 22879 ft | 446 kts | 208° |
| 2026-05-07 23:36 | 35.25497 | -115.49503 | 23328 ft | 450 kts | 208° |
| 2026-05-07 23:37 | 35.22710 | -115.51279 | 23720 ft | 453 kts | 208° |
| 2026-05-07 23:37 | 35.19906 | -115.53065 | 24089 ft | 455 kts | 208° |
| 2026-05-07 23:37 | 35.17085 | -115.54859 | 24437 ft | 458 kts | 208° |
| 2026-05-07 23:37 | 35.14274 | -115.56715 | 24797 ft | 460 kts | 212° |
| 2026-05-07 23:38 | 35.11678 | -115.59004 | 25162 ft | 461 kts | 222° |
| 2026-05-07 23:38 | 35.09381 | -115.61733 | 25514 ft | 461 kts | 228° |
| 2026-05-07 23:38 | 35.07164 | -115.64579 | 25844 ft | 463 kts | 228° |
| 2026-05-07 23:38 | 35.04935 | -115.67435 | 26174 ft | 465 kts | 227° |
| 2026-05-07 23:39 | 35.02698 | -115.70293 | 26510 ft | 467 kts | 227° |
| 2026-05-07 23:39 | 35.01208 | -115.72191 | 26722 ft | 469 kts | 227° |
| 2026-05-07 23:39 | 34.98178 | -115.76047 | 27154 ft | 472 kts | 227° |
| 2026-05-07 23:39 | 34.96669 | -115.77966 | 27349 ft | 473 kts | 227° |
| 2026-05-07 23:40 | 34.94384 | -115.80873 | 27649 ft | 476 kts | 227° |
| 2026-05-07 23:40 | 34.91344 | -115.84744 | 27865 ft | 480 kts | 227° |
| 2026-05-07 23:40 | 34.89014 | -115.87709 | 27877 ft | 488 kts | 227° |
| 2026-05-07 23:40 | 34.86646 | -115.90716 | 27868 ft | 495 kts | 227° |
| 2026-05-07 23:41 | 34.85025 | -115.92769 | 27877 ft | 499 kts | 227° |
| 2026-05-07 23:41 | 34.82610 | -115.95829 | 27864 ft | 503 kts | 227° |
| 2026-05-07 23:41 | 34.80209 | -115.98868 | 27870 ft | 504 kts | 227° |
| 2026-05-07 23:41 | 34.77746 | -116.01984 | 27871 ft | 505 kts | 227° |
| 2026-05-07 23:42 | 34.75350 | -116.05022 | 27869 ft | 505 kts | 227° |
| 2026-05-07 23:42 | 34.72924 | -116.08113 | 27869 ft | 505 kts | 227° |
| 2026-05-07 23:42 | 34.70500 | -116.11208 | 27869 ft | 505 kts | 227° |
| 2026-05-07 23:42 | 34.68075 | -116.14301 | 27877 ft | 505 kts | 227° |
| 2026-05-07 23:43 | 34.65644 | -116.17393 | 27881 ft | 505 kts | 227° |
| 2026-05-07 23:43 | 34.63217 | -116.20474 | 27877 ft | 505 kts | 227° |
| 2026-05-07 23:43 | 34.60791 | -116.23552 | 27875 ft | 505 kts | 227° |
| 2026-05-07 23:43 | 34.58359 | -116.26635 | 27880 ft | 505 kts | 227° |
| 2026-05-07 23:44 | 34.55936 | -116.29708 | 27887 ft | 505 kts | 227° |
| 2026-05-07 23:44 | 34.53504 | -116.32791 | 27881 ft | 505 kts | 227° |
| 2026-05-07 23:44 | 34.51075 | -116.35863 | 27885 ft | 505 kts | 227° |
| 2026-05-07 23:44 | 34.48642 | -116.38935 | 27903 ft | 504 kts | 227° |
| 2026-05-07 23:45 | 34.46212 | -116.42000 | 27907 ft | 504 kts | 227° |
| 2026-05-07 23:45 | 34.43780 | -116.45071 | 27905 ft | 504 kts | 228° |
| 2026-05-07 23:45 | 34.41611 | -116.48372 | 27896 ft | 493 kts | 238° |
| 2026-05-07 23:45 | 34.39956 | -116.51899 | 27935 ft | 475 kts | 246° |
| 2026-05-07 23:46 | 34.38503 | -116.55457 | 27930 ft | 464 kts | 246° |
| 2026-05-07 23:46 | 34.37087 | -116.58902 | 27934 ft | 452 kts | 245° |
| 2026-05-07 23:46 | 34.35688 | -116.62284 | 27785 ft | 448 kts | 245° |
| 2026-05-07 23:46 | 34.34299 | -116.65636 | 27547 ft | 444 kts | 245° |
| 2026-05-07 23:47 | 34.32921 | -116.68968 | 27297 ft | 442 kts | 245° |
| 2026-05-07 23:47 | 34.31561 | -116.72314 | 27028 ft | 442 kts | 246° |
| 2026-05-07 23:47 | 34.30224 | -116.75648 | 26488 ft | 440 kts | 246° |
| 2026-05-07 23:47 | 34.28896 | -116.78978 | 25917 ft | 437 kts | 246° |
| 2026-05-07 23:48 | 34.27576 | -116.82285 | 25339 ft | 435 kts | 246° |
| 2026-05-07 23:48 | 34.26262 | -116.85558 | 24769 ft | 433 kts | 246° |
| 2026-05-07 23:48 | 34.24968 | -116.88777 | 24278 ft | 429 kts | 246° |
| 2026-05-07 23:48 | 34.23666 | -116.92003 | 23740 ft | 427 kts | 246° |
| 2026-05-07 23:49 | 34.22365 | -116.95219 | 23282 ft | 422 kts | 245° |
| 2026-05-07 23:49 | 34.21131 | -116.98386 | 22487 ft | 413 kts | 251° |
| 2026-05-07 23:49 | 34.20219 | -117.01650 | 21965 ft | 409 kts | 254° |
| 2026-05-07 23:49 | 34.19341 | -117.04911 | 21426 ft | 408 kts | 253° |
| 2026-05-07 23:50 | 34.18460 | -117.08157 | 20894 ft | 406 kts | 254° |
| 2026-05-07 23:50 | 34.17578 | -117.11387 | 20369 ft | 404 kts | 253° |
| 2026-05-07 23:50 | 34.16700 | -117.14601 | 19803 ft | 404 kts | 254° |
| 2026-05-07 23:50 | 34.15824 | -117.17801 | 19448 ft | 398 kts | 253° |
| 2026-05-07 23:51 | 34.14963 | -117.20935 | 18818 ft | 391 kts | 253° |
| 2026-05-07 23:51 | 34.14111 | -117.24032 | 18269 ft | 387 kts | 253° |
| 2026-05-07 23:51 | 34.13266 | -117.27102 | 17727 ft | 386 kts | 253° |
| 2026-05-07 23:51 | 34.12421 | -117.30171 | 17219 ft | 385 kts | 253° |
| 2026-05-07 23:52 | 34.11576 | -117.33228 | 16724 ft | 383 kts | 253° |
| 2026-05-07 23:52 | 34.10740 | -117.36253 | 16442 ft | 375 kts | 253° |
| 2026-05-07 23:52 | 34.09941 | -117.39191 | 16077 ft | 364 kts | 254° |
| 2026-05-07 23:52 | 34.09197 | -117.42087 | 15309 ft | 360 kts | 255° |
| 2026-05-07 23:53 | 34.08490 | -117.44952 | 14754 ft | 353 kts | 255° |
| 2026-05-07 23:53 | 34.07804 | -117.47779 | 14313 ft | 349 kts | 256° |
| 2026-05-07 23:53 | 34.07123 | -117.50569 | 13861 ft | 353 kts | 256° |
| 2026-05-07 23:53 | 34.06414 | -117.53415 | 13393 ft | 352 kts | 254° |
| 2026-05-07 23:54 | 34.05704 | -117.56217 | 13086 ft | 345 kts | 254° |
| 2026-05-07 23:54 | 34.05010 | -117.58927 | 12964 ft | 330 kts | 255° |
| 2026-05-07 23:54 | 34.04350 | -117.61481 | 12834 ft | 308 kts | 254° |
| 2026-05-07 23:54 | 34.03729 | -117.63869 | 12701 ft | 288 kts | 254° |
| 2026-05-07 23:55 | 34.03150 | -117.66106 | 12545 ft | 271 kts | 256° |
| 2026-05-07 23:55 | 34.02598 | -117.68251 | 12232 ft | 267 kts | 256° |
| 2026-05-07 23:55 | 34.02141 | -117.70399 | 11931 ft | 262 kts | 264° |
| 2026-05-07 23:55 | 34.01935 | -117.72562 | 11675 ft | 258 kts | 266° |
| 2026-05-07 23:56 | 34.01732 | -117.74710 | 11389 ft | 256 kts | 265° |
| 2026-05-07 23:56 | 34.01526 | -117.76832 | 11112 ft | 254 kts | 267° |
| 2026-05-07 23:56 | 34.01322 | -117.78937 | 10816 ft | 252 kts | 267° |
| 2026-05-07 23:56 | 34.01120 | -117.81020 | 10529 ft | 249 kts | 265° |
| 2026-05-07 23:57 | 34.00919 | -117.83099 | 10098 ft | 254 kts | 267° |
| 2026-05-07 23:57 | 34.00711 | -117.85244 | 9463 ft | 259 kts | 267° |
| 2026-05-07 23:57 | 34.00504 | -117.87335 | 9292 ft | 244 kts | 265° |
| 2026-05-07 23:57 | 34.00304 | -117.89333 | 8971 ft | 237 kts | 267° |
| 2026-05-07 23:58 | 34.00111 | -117.91292 | 8532 ft | 235 kts | 265° |
| 2026-05-07 23:58 | 33.99920 | -117.93240 | 8132 ft | 233 kts | 266° |
| 2026-05-07 23:58 | 33.99727 | -117.95159 | 7788 ft | 228 kts | 265° |
| 2026-05-07 23:58 | 33.99537 | -117.97043 | 7405 ft | 226 kts | 264° |
| 2026-05-07 23:59 | 33.99351 | -117.98912 | 7078 ft | 222 kts | 265° |
| 2026-05-07 23:59 | 33.99169 | -118.00759 | 6658 ft | 225 kts | 265° |
| 2026-05-07 23:59 | 33.98980 | -118.02684 | 6105 ft | 236 kts | 264° |
| 2026-05-07 23:59 | 33.98784 | -118.04654 | 5730 ft | 237 kts | 264° |
| 2026-05-08 00:00 | 33.98590 | -118.06609 | 5528 ft | 230 kts | 265° |
| 2026-05-08 00:00 | 33.98403 | -118.08485 | 5378 ft | 221 kts | 264° |
| 2026-05-08 00:00 | 33.98225 | -118.10276 | 5153 ft | 216 kts | 264° |
| 2026-05-08 00:00 | 33.98044 | -118.12102 | 4743 ft | 221 kts | 264° |
| 2026-05-08 00:01 | 33.97858 | -118.13967 | 4317 ft | 225 kts | 264° |
| 2026-05-08 00:01 | 33.97676 | -118.15785 | 4018 ft | 216 kts | 264° |
| 2026-05-08 00:01 | 33.97498 | -118.17554 | 3742 ft | 211 kts | 264° |
| 2026-05-08 00:01 | 33.97322 | -118.19313 | 3481 ft | 211 kts | 264° |
| 2026-05-08 00:02 | 33.97144 | -118.21087 | 3207 ft | 209 kts | 264° |
| 2026-05-08 00:02 | 33.96971 | -118.22808 | 2934 ft | 212 kts | 264° |
| 2026-05-08 00:02 | 33.96793 | -118.24587 | 2665 ft | 214 kts | 263° |
| 2026-05-08 00:02 | 33.96614 | -118.26359 | 2381 ft | 210 kts | 263° |
| 2026-05-08 00:03 | 33.96443 | -118.28053 | 2120 ft | 198 kts | 263° |
| 2026-05-08 00:03 | 33.96281 | -118.29651 | 1890 ft | 186 kts | 262° |
| 2026-05-08 00:03 | 33.96130 | -118.31148 | 1626 ft | 173 kts | 261° |
| 2026-05-08 00:03 | 33.95989 | -118.32546 | 1398 ft | 164 kts | 261° |
| 2026-05-08 00:04 | 33.95853 | -118.33885 | 1185 ft | 160 kts | 260° |
| 2026-05-08 00:04 | 33.95719 | -118.35196 | 1006 ft | 155 kts | 263° |
| 2026-05-08 00:04 | 33.95587 | -118.36489 | 786 ft | 155 kts | 261° |
| 2026-05-08 00:04 | 33.95457 | -118.37769 | 575 ft | 160 kts | 261° |
| 2026-05-08 00:05 | 33.95325 | -118.39063 | 370 ft | 153 kts | 261° |
| 2026-05-08 00:05 | 33.95205 | -118.40324 | 174 ft | 150 kts | 261° |
| 2026-05-08 00:05 | 33.95080 | -118.41531 | 126 ft | 134 kts | 259° |
| 2026-05-08 00:05 | 33.94990 | -118.42330 | 121 ft | 53 kts | 263° |
| 2026-05-08 00:06 | 33.94924 | -118.42569 | 125 ft | 23 kts | 233° |
| 2026-05-08 00:06 | 33.94869 | -118.42657 | 123 ft | 10 kts | 232° |
| 2026-05-08 00:06 | 33.94854 | -118.42676 | 124 ft | 0 kts | 227° |
| 2026-05-08 00:07 | 33.94820 | -118.42714 | 125 ft | 24 kts | 215° |
| 2026-05-08 00:07 | 33.94667 | -118.42779 | 125 ft | 20 kts | 182° |
| 2026-05-08 00:07 | 33.94637 | -118.42710 | 125 ft | 10 kts | 88° |
| 2026-05-08 00:07 | 33.94646 | -118.42633 | 122 ft | 9 kts | 83° |
| 2026-05-08 00:08 | 33.94651 | -118.42564 | 126 ft | 8 kts | 84° |
| 2026-05-08 00:08 | 33.94661 | -118.42472 | 124 ft | 13 kts | 81° |
| 2026-05-08 00:08 | 33.94672 | -118.42354 | 126 ft | 19 kts | 84° |
| 2026-05-08 00:08 | 33.94690 | -118.42190 | 122 ft | 19 kts | 79° |
| 2026-05-08 00:09 | 33.94705 | -118.42039 | 126 ft | 17 kts | 84° |
| 2026-05-08 00:09 | 33.94718 | -118.41901 | 122 ft | 16 kts | 81° |
| 2026-05-08 00:09 | 33.94731 | -118.41775 | 122 ft | 14 kts | 84° |
| 2026-05-08 00:09 | 33.94741 | -118.41660 | 126 ft | 15 kts | 83° |
| 2026-05-08 00:10 | 33.94755 | -118.41513 | 126 ft | 14 kts | 83° |
| 2026-05-08 00:10 | 33.94766 | -118.41412 | 126 ft | 9 kts | 80° |
| 2026-05-08 00:10 | 33.94781 | -118.41340 | 126 ft | 8 kts | 71° |
| 2026-05-08 00:10 | 33.94796 | -118.41269 | 126 ft | 14 kts | 81° |
| 2026-05-08 00:11 | 33.94824 | -118.41016 | 126 ft | 35 kts | 83° |
| 2026-05-08 00:11 | 33.94849 | -118.40753 | 122 ft | 24 kts | 84° |
| 2026-05-08 00:11 | 33.94865 | -118.40593 | 126 ft | 16 kts | 83° |
| 2026-05-08 00:11 | 33.94878 | -118.40465 | 124 ft | 15 kts | 83° |
| 2026-05-08 00:12 | 33.94891 | -118.40348 | 123 ft | 14 kts | 83° |
| 2026-05-08 00:12 | 33.94838 | -118.40295 | 123 ft | 12 kts | 198° |
| 2026-05-08 00:12 | 33.94779 | -118.40366 | 122 ft | 13 kts | 212° |
| 2026-05-08 00:12 | 33.94739 | -118.40386 | 124 ft | 0 kts | 207° |